Time;durP1;ratioP1;P1;durP2;ratioP2;P2;SDS_P1;SDS_P2;PMS_P1;PMS_P2;Temp;Humidity;BMP_temperature;BMP_pressure;BME280_temperature;BME280_humidity;BME280_pressure;Samples;Min_cycle;Max_cycle;Signal;HPM_P1;HPM_P2
2022/11/26 00:00:48;;;;;;;1.95;1.40;;;;;;;15.51;50.80;93941.13;5065398;28;20033;-82
2022/11/26 00:03:14;;;;;;;2.65;1.50;;;;;;;15.52;50.53;93937.94;5067230;28;20124;-82
2022/11/26 00:05:41;;;;;;;2.30;1.60;;;;;;;15.53;50.77;93939.44;5068140;28;20032;-82
2022/11/26 00:08:20;;;;;;;2.08;1.50;;;;;;;15.54;50.55;93940.19;5084919;28;20040;-82
2022/11/26 00:10:46;;;;;;;2.20;1.80;;;;;;;15.55;50.38;93936.25;5068220;28;20085;-82
2022/11/26 00:13:20;;;;;;;1.95;1.30;;;;;;;15.50;50.79;93942.38;5084983;28;20094;-83
2022/11/26 00:15:45;;;;;;;2.13;1.50;;;;;;;15.54;50.44;93945.63;5077041;28;20426;-83
2022/11/26 00:18:11;;;;;;;1.67;1.27;;;;;;;15.53;50.46;93947.63;5047515;28;20033;-82
2022/11/26 00:20:37;;;;;;;1.30;1.20;;;;;;;15.53;50.50;93944.13;5078865;28;20517;-85
2022/11/26 00:23:03;;;;;;;2.45;1.55;;;;;;;15.52;50.41;93948.09;5064852;28;20037;-83
2022/11/26 00:25:40;;;;;;;3.35;1.77;;;;;;;15.56;50.33;93954.13;5064650;28;20294;-83
2022/11/26 00:28:21;;;;;;;1.85;1.50;;;;;;;15.54;50.64;93956.53;5047835;28;20037;-82
2022/11/26 00:30:46;;;;;;;1.75;1.33;;;;;;;15.54;50.69;93956.53;5068123;28;20036;-85
2022/11/26 00:33:12;;;;;;;2.13;1.50;;;;;;;15.53;50.75;93958.50;5047324;28;20044;-87
2022/11/26 00:35:37;;;;;;;2.38;1.40;;;;;;;15.50;50.72;93975.81;5065166;28;20056;-82
2022/11/26 00:38:02;;;;;;;2.00;1.50;;;;;;;15.52;50.46;93973.34;5048654;28;20037;-82
2022/11/26 00:40:31;;;;;;;2.33;1.30;;;;;;;15.56;50.45;93982.13;5047732;28;20549;-82
2022/11/26 00:42:56;;;;;;;2.90;1.77;;;;;;;15.55;50.84;93971.66;5032294;28;20040;-87
2022/11/26 00:45:26;;;;;;;1.98;1.58;;;;;;;15.56;50.39;93963.03;5060723;28;20491;-86
2022/11/26 00:47:52;;;;;;;1.70;1.40;;;;;;;15.54;50.31;93976.34;5047897;28;20089;-82
2022/11/26 00:50:20;;;;;;;1.50;1.40;;;;;;;15.51;50.72;93974.59;5031571;28;20099;-82
2022/11/26 00:52:46;;;;;;;2.15;1.40;;;;;;;15.54;50.83;93984.53;5047315;28;20352;-83
2022/11/26 00:55:25;;;;;;;1.75;1.23;;;;;;;15.52;50.59;93986.22;5066182;28;20040;-83
2022/11/26 00:57:51;;;;;;;2.20;1.40;;;;;;;15.51;50.92;94001.09;5068885;28;20098;-82
2022/11/26 01:00:18;;;;;;;2.53;1.60;;;;;;;15.49;50.72;93990.66;5055699;28;20578;-84
2022/11/26 01:02:43;;;;;;;1.70;1.30;;;;;;;15.52;50.84;93997.88;5051470;28;20032;-83
2022/11/26 01:05:09;;;;;;;1.92;1.50;;;;;;;15.52;50.51;94000.59;5050570;28;20082;-81
2022/11/26 01:07:34;;;;;;;1.50;1.23;;;;;;;15.53;50.37;94007.56;5052117;28;20037;-83
2022/11/26 01:10:00;;;;;;;1.88;1.33;;;;;;;15.51;50.23;94007.28;5054494;28;20043;-87
2022/11/26 01:12:25;;;;;;;1.08;0.98;;;;;;;15.53;50.44;94017.72;5087802;28;20363;-82
2022/11/26 01:14:50;;;;;;;2.08;1.48;;;;;;;15.55;50.68;94016.00;5071489;28;20036;-84
2022/11/26 01:17:16;;;;;;;1.73;1.63;;;;;;;15.53;50.70;94018.47;5070531;28;20035;-82
2022/11/26 01:19:41;;;;;;;1.42;1.10;;;;;;;15.52;50.70;94027.09;5046082;28;20052;-85
2022/11/26 01:22:15;;;;;;;2.33;1.50;;;;;;;15.54;50.70;94016.47;5070156;28;20538;-83
2022/11/26 01:24:40;;;;;;;1.45;1.10;;;;;;;15.52;51.08;94025.13;5071302;28;20047;-86
2022/11/26 01:27:08;;;;;;;1.58;1.17;;;;;;;15.52;50.75;94029.84;5070819;28;20047;-82
2022/11/26 01:29:34;;;;;;;1.70;1.10;;;;;;;15.56;50.42;94023.00;5054740;28;20133;-82
2022/11/26 01:31:59;;;;;;;2.15;1.30;;;;;;;15.51;50.40;94028.34;5070255;28;20028;-83
2022/11/26 01:34:25;;;;;;;1.48;1.00;;;;;;;15.54;50.34;94030.84;5051015;28;20114;-83
2022/11/26 01:36:50;;;;;;;1.30;1.20;;;;;;;15.52;50.43;94022.41;5068051;28;20025;-82
2022/11/26 01:39:18;;;;;;;1.38;1.10;;;;;;;15.53;50.61;94026.63;5052625;28;20055;-82
2022/11/26 01:41:47;;;;;;;1.30;1.13;;;;;;;15.50;50.67;94030.31;5067426;28;20045;-88
2022/11/26 01:44:16;;;;;;;1.95;1.25;;;;;;;15.52;50.86;94022.41;5050544;28;20052;-82
2022/11/26 01:46:42;;;;;;;1.98;1.17;;;;;;;15.58;50.37;94036.88;5066289;28;20042;-81
2022/11/26 01:49:20;;;;;;;1.30;1.20;;;;;;;15.53;50.77;94032.09;5082487;28;20402;-84
2022/11/26 01:51:46;;;;;;;1.45;1.35;;;;;;;15.52;50.66;94035.28;5041652;28;20529;-84
2022/11/26 01:54:11;;;;;;;1.58;1.27;;;;;;;15.50;50.88;94037.72;5054639;28;20059;-82
2022/11/26 01:56:51;;;;;;;1.67;1.20;;;;;;;15.48;50.67;94029.28;5087304;28;20482;-82
2022/11/26 01:59:27;;;;;;;1.88;1.20;;;;;;;15.51;50.91;94039.97;5055148;28;20068;-85
2022/11/26 02:01:53;;;;;;;1.23;1.02;;;;;;;15.47;50.62;94030.50;5070238;28;20562;-86
2022/11/26 02:04:28;;;;;;;1.67;1.20;;;;;;;15.49;50.67;94047.13;5068287;28;20043;-83
2022/11/26 02:06:54;;;;;;;2.05;1.40;;;;;;;15.47;51.00;94046.84;5087052;28;20040;-82
2022/11/26 02:09:20;;;;;;;1.58;1.30;;;;;;;15.53;50.64;94051.16;5086484;28;20575;-82
2022/11/26 02:11:45;;;;;;;1.48;1.20;;;;;;;15.50;50.57;94054.09;5070659;28;20032;-82
2022/11/26 02:14:14;;;;;;;1.70;1.30;;;;;;;15.48;50.53;94056.53;5069913;28;20077;-82
2022/11/26 02:16:49;;;;;;;1.65;1.42;;;;;;;15.50;50.47;94054.09;5065606;28;20029;-86
2022/11/26 02:19:23;;;;;;;2.00;1.58;;;;;;;15.48;50.28;94062.72;5079939;28;20067;-82
2022/11/26 02:21:53;;;;;;;1.08;0.98;;;;;;;15.48;50.44;94051.81;5081420;28;20375;-82
2022/11/26 02:24:39;;;;;;;1.67;1.00;;;;;;;15.51;50.44;94059.06;5069558;28;20036;-82
2022/11/26 02:27:21;;;;;;;1.15;0.90;;;;;;;15.51;50.67;94061.03;5086366;28;20028;-85
2022/11/26 02:30:03;;;;;;;1.55;1.00;;;;;;;15.52;50.48;94066.00;5053585;28;20074;-82
2022/11/26 02:32:33;;;;;;;2.28;1.40;;;;;;;15.49;50.47;94058.78;5049929;28;20529;-85
2022/11/26 02:35:09;;;;;;;2.10;1.23;;;;;;;15.53;50.46;94056.59;5039139;28;20510;-82
2022/11/26 02:37:46;;;;;;;1.92;1.23;;;;;;;15.51;50.43;94066.47;5033250;28;20127;-82
2022/11/26 02:40:12;;;;;;;1.80;1.42;;;;;;;15.52;50.67;94059.81;5054869;28;20094;-83
2022/11/26 02:42:38;;;;;;;1.67;1.27;;;;;;;15.52;50.55;94059.81;5066537;28;20032;-83
2022/11/26 02:45:06;;;;;;;2.05;1.40;;;;;;;15.49;50.51;94071.66;5050045;28;20048;-82
2022/11/26 02:47:31;;;;;;;1.48;1.15;;;;;;;15.50;50.70;94079.34;5033556;28;20494;-83
2022/11/26 02:49:58;;;;;;;1.90;1.27;;;;;;;15.51;50.64;94088.28;5066544;28;20492;-83
2022/11/26 02:52:23;;;;;;;1.65;1.15;;;;;;;15.51;50.74;94086.31;5050127;28;20044;-86
2022/11/26 02:54:49;;;;;;;1.80;1.10;;;;;;;15.49;50.47;94077.09;5055851;28;20032;-82
2022/11/26 02:57:14;;;;;;;1.42;1.13;;;;;;;15.49;50.71;94085.28;5068781;28;20044;-87
2022/11/26 02:59:40;;;;;;;1.60;1.20;;;;;;;15.48;50.80;94078.31;5086229;28;20062;-82
2022/11/26 03:02:24;;;;;;;1.13;0.85;;;;;;;15.50;50.11;94073.91;5085354;28;20039;-82
2022/11/26 03:04:50;;;;;;;2.10;1.35;;;;;;;15.51;50.38;94080.09;5065675;28;20121;-82
2022/11/26 03:07:17;;;;;;;1.40;0.95;;;;;;;15.54;50.55;94084.59;5065031;28;20352;-82
2022/11/26 03:09:53;;;;;;;1.98;1.25;;;;;;;15.50;50.61;94084.81;5049840;28;20051;-85
2022/11/26 03:12:19;;;;;;;1.60;1.20;;;;;;;15.50;50.52;94078.59;5065559;28;20087;-82
2022/11/26 03:14:44;;;;;;;1.80;1.30;;;;;;;15.51;50.60;94086.31;5065861;28;20037;-84
2022/11/26 03:17:09;;;;;;;1.30;1.05;;;;;;;15.50;50.74;94084.81;5048090;28;20036;-82
2022/11/26 03:19:35;;;;;;;1.60;1.10;;;;;;;15.48;50.64;94087.25;5033102;28;20033;-83
2022/11/26 03:22:00;;;;;;;2.25;1.35;;;;;;;15.46;50.64;94086.22;5065690;28;20075;-85
2022/11/26 03:24:26;;;;;;;2.15;1.30;;;;;;;15.51;50.56;94085.56;5048647;28;20594;-84
2022/11/26 03:26:51;;;;;;;1.27;0.90;;;;;;;15.50;50.79;94084.81;5048876;28;20037;-81
2022/11/26 03:29:16;;;;;;;1.60;1.05;;;;;;;15.53;50.26;94080.38;5074695;28;20067;-81
2022/11/26 03:31:42;;;;;;;1.25;1.00;;;;;;;15.49;50.82;94096.16;5065262;28;20060;-84
2022/11/26 03:34:07;;;;;;;1.15;1.00;;;;;;;15.51;50.59;94091.00;5065126;28;20040;-86
2022/11/26 03:36:33;;;;;;;1.45;1.05;;;;;;;15.48;50.81;94092.69;5066980;28;20028;-82
2022/11/26 03:38:58;;;;;;;1.10;0.90;;;;;;;15.50;50.86;94087.53;5085993;28;20078;-82
2022/11/26 03:41:24;;;;;;;0.98;0.90;;;;;;;15.53;50.30;94094.00;5067610;28;20040;-82
2022/11/26 03:43:49;;;;;;;1.30;0.95;;;;;;;15.52;50.62;94092.50;5086224;28;20535;-82
2022/11/26 03:46:14;;;;;;;1.23;0.93;;;;;;;15.54;50.27;94098.22;5072382;28;20056;-82
2022/11/26 03:48:40;;;;;;;1.42;1.05;;;;;;;15.50;50.68;94101.16;5065814;28;20028;-83
2022/11/26 03:51:05;;;;;;;1.02;0.80;;;;;;;15.50;50.33;94101.16;5048379;28;20426;-83
2022/11/26 03:53:31;;;;;;;1.25;0.90;;;;;;;15.49;50.61;94112.53;5048036;28;20040;-83
2022/11/26 03:55:56;;;;;;;1.48;1.13;;;;;;;15.49;50.41;94115.25;5044369;28;20036;-82
2022/11/26 03:58:21;;;;;;;1.52;1.17;;;;;;;15.47;50.52;94113.00;5068411;28;20035;-82
2022/11/26 04:00:47;;;;;;;1.08;0.95;;;;;;;15.51;50.56;94124.44;5068639;28;20122;-82
2022/11/26 04:03:12;;;;;;;2.60;1.42;;;;;;;15.49;50.66;94118.72;5068575;28;20491;-82
2022/11/26 04:05:38;;;;;;;1.42;1.17;;;;;;;15.49;50.92;94129.63;5048888;28;20544;-82
2022/11/26 04:08:03;;;;;;;1.63;1.10;;;;;;;15.48;50.72;94119.94;5064991;28;20085;-81
2022/11/26 04:10:28;;;;;;;1.67;1.10;;;;;;;15.52;50.69;94127.94;5065392;28;20047;-82
2022/11/26 04:12:54;;;;;;;1.17;0.90;;;;;;;15.53;50.42;94126.69;5065664;28;20037;-82
2022/11/26 04:15:19;;;;;;;2.45;1.20;;;;;;;15.51;50.46;94138.06;5040471;28;20132;-83
2022/11/26 04:17:45;;;;;;;1.42;1.17;;;;;;;15.50;50.67;94124.91;5043479;28;20058;-83
2022/11/26 04:20:10;;;;;;;1.10;0.80;;;;;;;15.52;50.55;94128.69;5045646;28;20041;-82
2022/11/26 04:22:36;;;;;;;2.08;1.20;;;;;;;15.49;50.51;94132.34;5066541;28;20365;-83
2022/11/26 04:25:01;;;;;;;1.33;1.00;;;;;;;15.51;50.57;94120.97;5064815;28;20086;-82
2022/11/26 04:27:26;;;;;;;1.45;0.98;;;;;;;15.51;50.30;94135.34;5047744;28;20041;-84
2022/11/26 04:29:52;;;;;;;1.13;0.88;;;;;;;15.53;50.63;94132.91;5063524;28;20036;-81
2022/11/26 04:32:17;;;;;;;1.20;1.10;;;;;;;15.54;50.56;94147.28;5052534;28;20514;-81
2022/11/26 04:34:43;;;;;;;1.10;0.77;;;;;;;15.52;50.42;94141.56;5051757;28;20059;-82
2022/11/26 04:37:08;;;;;;;1.30;1.10;;;;;;;15.55;50.44;94149.53;5050809;28;20036;-82
2022/11/26 04:39:34;;;;;;;1.20;1.00;;;;;;;15.52;50.52;94147.75;5068623;28;20029;-82
2022/11/26 04:42:00;;;;;;;1.63;1.10;;;;;;;15.47;50.55;94155.84;5070778;28;20062;-82
2022/11/26 04:44:25;;;;;;;1.25;1.13;;;;;;;15.54;50.36;94145.31;5070521;28;20435;-86
2022/11/26 04:46:51;;;;;;;1.55;1.05;;;;;;;15.53;50.51;94162.13;5067986;28;20483;-82
2022/11/26 04:49:16;;;;;;;1.55;0.90;;;;;;;15.51;50.22;94159.88;5051467;28;20557;-82
2022/11/26 04:51:42;;;;;;;1.30;1.20;;;;;;;15.50;50.55;94160.34;5051921;28;20044;-82
2022/11/26 04:54:07;;;;;;;1.77;1.35;;;;;;;15.50;50.38;94168.53;5056278;28;20047;-82
2022/11/26 04:56:32;;;;;;;1.30;0.93;;;;;;;15.49;50.65;94165.03;5067821;28;20040;-81
2022/11/26 04:58:58;;;;;;;1.27;1.00;;;;;;;15.50;50.53;94174.72;5034584;28;20036;-81
2022/11/26 05:01:23;;;;;;;1.45;1.02;;;;;;;15.50;50.33;94176.69;5060265;28;20048;-82
2022/11/26 05:03:49;;;;;;;1.25;1.00;;;;;;;15.51;50.69;94168.03;5035192;28;20502;-84
2022/11/26 05:06:15;;;;;;;1.35;1.17;;;;;;;15.54;50.35;94169.06;5058779;28;20045;-82
2022/11/26 05:08:40;;;;;;;1.83;1.20;;;;;;;15.51;50.61;94167.28;5069509;28;20024;-82
2022/11/26 05:11:06;;;;;;;1.25;1.00;;;;;;;15.51;50.61;94178.19;5078586;28;20086;-85
2022/11/26 05:13:31;;;;;;;1.85;1.00;;;;;;;15.50;50.47;94173.97;5051389;28;20029;-82
2022/11/26 05:15:57;;;;;;;1.63;1.10;;;;;;;15.50;50.49;94180.16;5067758;28;20067;-83
2022/11/26 05:18:22;;;;;;;1.67;1.00;;;;;;;15.50;50.65;94182.16;5064789;28;20117;-87
2022/11/26 05:20:47;;;;;;;1.42;0.98;;;;;;;15.48;50.34;94176.41;5063893;28;20036;-82
2022/11/26 05:23:13;;;;;;;1.60;1.02;;;;;;;15.48;50.59;94190.03;5067459;28;20044;-82
2022/11/26 05:25:38;;;;;;;1.08;0.98;;;;;;;15.50;50.61;94193.03;5054051;28;20040;-82
2022/11/26 05:28:03;;;;;;;1.80;1.30;;;;;;;15.49;50.86;94192.28;5050454;28;20032;-84
2022/11/26 05:30:29;;;;;;;2.20;1.30;;;;;;;15.49;50.76;94208.63;5051417;28;20044;-82
2022/11/26 05:32:54;;;;;;;1.35;0.98;;;;;;;15.50;50.77;94210.13;5051022;28;20102;-82
2022/11/26 05:35:20;;;;;;;1.95;1.23;;;;;;;15.52;50.29;94204.97;5035276;28;20037;-86
2022/11/26 05:37:45;;;;;;;1.48;1.17;;;;;;;15.55;50.69;94214.94;5044492;28;20028;-81
2022/11/26 05:40:11;;;;;;;1.20;0.98;;;;;;;15.52;50.69;94209.66;5033688;28;20032;-82
2022/11/26 05:42:37;;;;;;;1.08;0.80;;;;;;;15.53;50.80;94213.91;5086909;28;20044;-83
2022/11/26 05:45:03;;;;;;;1.40;1.08;;;;;;;15.55;50.44;94206.75;5068232;28;20036;-85
2022/11/26 05:47:28;;;;;;;1.73;1.23;;;;;;;15.55;50.26;94211.47;5050725;28;20360;-85
2022/11/26 05:49:54;;;;;;;1.00;0.90;;;;;;;15.54;50.34;94210.72;5050484;28;20086;-82
2022/11/26 05:52:20;;;;;;;1.80;1.00;;;;;;;15.50;50.68;94215.59;5067327;28;20407;-82
2022/11/26 05:54:45;;;;;;;1.10;1.00;;;;;;;15.51;50.47;94213.63;5068056;28;20036;-85
2022/11/26 05:57:11;;;;;;;1.20;1.10;;;;;;;15.54;50.97;94215.41;5062075;28;20044;-82
2022/11/26 05:59:36;;;;;;;1.58;1.10;;;;;;;15.54;50.42;94220.84;5051262;28;20032;-83
2022/11/26 06:02:02;;;;;;;1.17;0.93;;;;;;;15.50;50.61;94226.50;5056163;28;20560;-84
2022/11/26 06:04:28;;;;;;;1.75;1.17;;;;;;;15.50;50.65;94225.75;5065796;28;20063;-81
2022/11/26 06:06:53;;;;;;;2.25;1.20;;;;;;;15.52;50.52;94231.47;5061371;28;20036;-85
2022/11/26 06:09:19;;;;;;;1.35;1.17;;;;;;;15.52;50.75;94228.75;5050523;28;20032;-82
2022/11/26 06:11:44;;;;;;;1.35;1.10;;;;;;;15.48;50.58;94242.56;5067124;28;20434;-82
2022/11/26 06:14:10;;;;;;;1.23;0.80;;;;;;;15.50;50.60;94234.66;5049925;28;20033;-82
2022/11/26 06:16:36;;;;;;;1.45;1.05;;;;;;;15.52;50.41;94234.19;5066533;28;20059;-82
2022/11/26 06:19:01;;;;;;;1.65;1.00;;;;;;;15.53;50.62;94238.44;5059923;28;20520;-85
2022/11/26 06:21:27;;;;;;;1.73;1.20;;;;;;;15.51;50.60;94236.16;5086163;28;20036;-82
2022/11/26 06:23:52;;;;;;;0.90;0.70;;;;;;;15.50;50.79;94244.81;5087356;28;20040;-83
2022/11/26 06:26:18;;;;;;;0.80;0.70;;;;;;;15.53;50.60;94243.88;5086389;28;20040;-82
2022/11/26 06:28:43;;;;;;;1.35;1.05;;;;;;;15.51;50.36;94241.63;5034681;28;20044;-81
2022/11/26 06:31:09;;;;;;;2.88;1.25;;;;;;;15.51;50.57;94243.59;5064398;28;20376;-82
2022/11/26 06:33:34;;;;;;;2.65;1.23;;;;;;;15.55;50.67;94255.06;5067014;28;20047;-86
2022/11/26 06:36:00;;;;;;;1.77;1.10;;;;;;;15.52;50.50;94251.28;5054144;28;20107;-82
2022/11/26 06:38:26;;;;;;;2.08;1.35;;;;;;;15.54;50.48;94253.56;5052825;28;20047;-85
2022/11/26 06:41:01;;;;;;;2.10;1.00;;;;;;;15.52;50.71;94264.94;5069914;28;20155;-82
2022/11/26 06:43:27;;;;;;;1.13;0.98;;;;;;;15.51;50.64;94270.84;5084875;28;20078;-82
2022/11/26 06:45:53;;;;;;;2.28;1.10;;;;;;;15.54;50.67;94267.19;5066850;28;20036;-85
2022/11/26 06:48:21;;;;;;;2.17;0.80;;;;;;;15.54;50.45;94272.63;5039081;28;20040;-83
2022/11/26 06:50:47;;;;;;;4.18;1.00;;;;;;;15.52;50.43;94286.72;5065834;28;20037;-82
2022/11/26 06:53:12;;;;;;;1.45;1.10;;;;;;;15.53;50.63;94282.78;5032823;28;20055;-83
2022/11/26 06:55:37;;;;;;;2.38;1.00;;;;;;;15.52;50.62;94285.97;5086472;28;20040;-83
2022/11/26 06:58:03;;;;;;;2.63;1.90;;;;;;;15.56;50.40;94297.47;5066118;28;20110;-85
2022/11/26 07:00:28;;;;;;;2.38;1.33;;;;;;;15.54;50.62;94286.25;5050871;28;20036;-83
2022/11/26 07:02:54;;;;;;;9.73;1.75;;;;;;;15.56;50.56;94292.78;5049626;28;20049;-85
2022/11/26 07:05:19;;;;;;;1.80;1.30;;;;;;;15.58;50.53;94301.22;5066230;28;20047;-83
2022/11/26 07:07:44;;;;;;;13.63;3.15;;;;;;;15.59;50.45;94289.06;5069226;28;20032;-82
2022/11/26 07:10:10;;;;;;;9.38;3.92;;;;;;;15.56;50.74;94295.50;5053963;28;20043;-84
2022/11/26 07:12:35;;;;;;;4.85;3.95;;;;;;;15.60;50.30;94300.72;5070237;28;20507;-84
2022/11/26 07:15:01;;;;;;;13.98;4.95;;;;;;;15.57;50.36;94298.97;5066929;28;20075;-82
2022/11/26 07:17:27;;;;;;;10.60;6.18;;;;;;;15.58;50.14;94303.97;5062266;28;20044;-83
2022/11/26 07:19:53;;;;;;;13.25;5.82;;;;;;;15.58;50.42;94308.66;5051753;28;20029;-82
2022/11/26 07:22:18;;;;;;;8.15;5.20;;;;;;;15.56;50.43;94297.47;5041338;28;20418;-83
2022/11/26 07:24:43;;;;;;;8.20;4.97;;;;;;;15.56;50.33;94305.66;5033503;28;20044;-83
2022/11/26 07:27:09;;;;;;;8.65;5.35;;;;;;;15.62;50.64;94309.19;5058253;28;20040;-84
2022/11/26 07:29:34;;;;;;;16.35;6.35;;;;;;;15.59;50.26;94310.16;5042315;28;20028;-86
2022/11/26 07:32:00;;;;;;;11.20;5.68;;;;;;;15.61;50.43;94321.31;5057255;28;20525;-84
2022/11/26 07:34:25;;;;;;;11.07;6.60;;;;;;;15.59;50.52;94310.16;5066127;28;20036;-84
2022/11/26 07:36:50;;;;;;;12.50;6.00;;;;;;;15.59;50.55;94326.50;5058093;28;20039;-82
2022/11/26 07:39:16;;;;;;;16.05;7.95;;;;;;;15.57;50.43;94324.25;5076285;28;20029;-83
2022/11/26 07:41:41;;;;;;;10.57;6.20;;;;;;;15.60;50.54;94328.75;5054841;28;20040;-82
2022/11/26 07:44:11;;;;;;;14.55;8.90;;;;;;;15.57;50.18;94329.69;5059214;28;20044;-81
2022/11/26 07:46:37;;;;;;;18.08;10.20;;;;;;;15.58;50.20;94335.91;5050989;28;20048;-82
2022/11/26 07:49:03;;;;;;;22.85;13.02;;;;;;;15.59;50.10;94340.13;5033225;28;20155;-85
2022/11/26 07:51:29;;;;;;;34.13;20.30;;;;;;;15.57;50.33;94340.59;5049483;28;20036;-82
2022/11/26 07:53:55;;;;;;;34.47;19.42;;;;;;;15.56;50.26;94339.09;5050051;28;20052;-82
2022/11/26 07:56:21;;;;;;;31.42;18.75;;;;;;;15.60;50.44;94341.63;5034562;28;20035;-83
2022/11/26 07:58:52;;;;;;;33.58;20.30;;;;;;;15.59;50.11;94340.84;5067625;28;20044;-86
2022/11/26 08:01:19;;;;;;;29.58;17.98;;;;;;;15.62;49.97;94350.06;5080055;28;20036;-84
2022/11/26 08:03:48;;;;;;;30.38;20.10;;;;;;;15.60;50.09;94341.63;5069567;28;20068;-84
2022/11/26 08:06:16;;;;;;;42.40;24.58;;;;;;;15.57;50.39;94348.03;5068952;28;20115;-89
2022/11/26 08:08:42;;;;;;;39.28;25.23;;;;;;;15.57;50.22;94337.88;5070949;28;20032;-83
2022/11/26 08:11:21;;;;;;;50.15;29.83;;;;;;;15.58;50.28;94344.84;5051651;28;20040;-88
2022/11/26 08:13:46;;;;;;;46.22;30.88;;;;;;;15.63;50.28;94346.88;5053987;28;20106;-83
2022/11/26 08:16:12;;;;;;;54.67;31.45;;;;;;;15.61;50.40;94348.56;5037231;28;20135;-88
2022/11/26 08:18:38;;;;;;;63.70;35.58;;;;;;;15.60;50.23;94355.25;5040211;28;20067;-82
2022/11/26 08:21:03;;;;;;;56.75;32.17;;;;;;;15.54;49.99;94352.41;5053046;28;20064;-83
2022/11/26 08:23:29;;;;;;;60.60;32.35;;;;;;;15.55;49.82;94353.91;5052211;28;20203;-85
2022/11/26 08:25:54;;;;;;;56.72;34.17;;;;;;;15.60;49.78;94358.72;5052874;28;20548;-84
2022/11/26 08:28:20;;;;;;;73.78;41.92;;;;;;;15.60;49.83;94369.63;5069583;28;20555;-83
2022/11/26 08:30:46;;;;;;;62.47;41.60;;;;;;;15.63;50.18;94374.13;5070391;28;20388;-83
2022/11/26 08:33:11;;;;;;;59.75;39.20;;;;;;;15.63;50.21;94371.41;5068403;28;20044;-84
2022/11/26 08:35:37;;;;;;;67.72;42.15;;;;;;;15.59;50.14;94376.28;5090603;28;20036;-85
2022/11/26 08:38:02;;;;;;;60.17;39.78;;;;;;;15.62;50.10;94375.34;5057448;28;20534;-85
2022/11/26 08:40:28;;;;;;;58.08;41.55;;;;;;;15.66;49.96;94389.56;5071952;28;20387;-84
2022/11/26 08:42:54;;;;;;;65.72;39.35;;;;;;;15.62;49.60;94382.78;5045282;28;20403;-83
2022/11/26 08:45:19;;;;;;;51.75;31.67;;;;;;;15.60;49.78;94382.50;5053369;28;20045;-83
2022/11/26 08:47:45;;;;;;;51.00;32.05;;;;;;;15.62;49.51;94378.06;5028714;28;20045;-84
2022/11/26 08:50:10;;;;;;;62.50;35.72;;;;;;;15.60;49.85;94396.88;5047479;28;20559;-83
2022/11/26 08:52:36;;;;;;;53.47;33.00;;;;;;;15.52;49.51;94386.78;5015116;28;20060;-83
2022/11/26 08:55:01;;;;;;;53.17;32.38;;;;;;;15.52;49.28;94390.28;5014164;28;20757;-81
2022/11/26 08:57:27;;;;;;;47.60;29.50;;;;;;;15.56;49.47;94381.94;5020981;28;20112;-85
2022/11/26 08:59:53;;;;;;;48.85;31.88;;;;;;;15.59;49.29;94383.75;5035940;28;20033;-87
2022/11/26 09:02:19;;;;;;;60.10;35.08;;;;;;;15.60;49.90;94388.69;5033773;28;20072;-85
2022/11/26 09:04:45;;;;;;;57.97;34.78;;;;;;;15.60;50.02;94377.78;5051701;28;20040;-82
2022/11/26 09:07:10;;;;;;;61.40;35.85;;;;;;;15.62;50.11;94393.69;5007978;28;20550;-83
2022/11/26 09:09:36;;;;;;;55.97;36.05;;;;;;;15.62;49.94;94390.97;5033790;28;20040;-86
2022/11/26 09:12:01;;;;;;;63.00;37.13;;;;;;;15.61;50.23;94403.81;5016348;28;20049;-83
2022/11/26 09:14:29;;;;;;;64.88;40.85;;;;;;;15.63;50.01;94389.72;5050134;28;20415;-87
2022/11/26 09:16:55;;;;;;;55.10;35.65;;;;;;;15.61;49.86;94390.19;5033554;28;20032;-82
2022/11/26 09:19:20;;;;;;;81.82;46.80;;;;;;;15.62;50.08;94399.13;5045064;28;20081;-86
2022/11/26 09:21:46;;;;;;;83.85;45.42;;;;;;;15.61;49.97;94390.19;5061053;28;20510;-85
2022/11/26 09:24:11;;;;;;;108.35;54.72;;;;;;;15.62;49.74;94386.25;5066466;28;20135;-82
2022/11/26 09:26:37;;;;;;;120.03;67.43;;;;;;;15.67;49.73;94393.78;5053188;28;20347;-81
2022/11/26 09:29:02;;;;;;;122.30;68.53;;;;;;;15.62;49.89;94391.72;5065761;28;20040;-82
2022/11/26 09:31:28;;;;;;;158.07;86.03;;;;;;;15.64;50.03;94385.78;5051546;28;20037;-87
2022/11/26 09:33:55;;;;;;;200.43;93.75;;;;;;;15.62;50.08;94399.13;5064777;28;20036;-80
2022/11/26 09:36:20;;;;;;;206.90;102.55;;;;;;;15.66;49.80;94394.25;5088224;28;20044;-81
2022/11/26 09:38:46;;;;;;;210.77;103.22;;;;;;;15.66;50.34;94405.16;5035273;28;20044;-80
2022/11/26 09:41:32;;;;;;;202.43;100.03;;;;;;;15.65;50.02;94406.38;5033561;28;20043;-80
2022/11/26 09:44:18;;;;;;;192.88;93.20;;;;;;;15.65;49.95;94409.09;5069511;28;20047;-79
2022/11/26 09:47:09;;;;;;;194.55;93.82;;;;;;;15.64;50.03;94413.81;5052821;28;20119;-81
2022/11/26 09:49:49;;;;;;;177.77;91.30;;;;;;;15.66;50.06;94408.63;5068404;28;20044;-80
2022/11/26 09:52:15;;;;;;;182.73;91.70;;;;;;;15.66;49.89;94413.34;5052410;28;20044;-89
2022/11/26 09:54:40;;;;;;;177.05;87.75;;;;;;;15.67;49.63;94407.41;5034025;28;20470;-81
2022/11/26 09:57:19;;;;;;;167.90;88.75;;;;;;;15.65;50.00;94401.69;5053406;28;20555;-84
2022/11/26 09:59:45;;;;;;;169.88;83.65;;;;;;;15.68;50.44;94413.63;5034843;28;20044;-85
2022/11/26 10:02:11;;;;;;;166.98;85.40;;;;;;;15.67;50.02;94409.38;5042882;28;20040;-82
2022/11/26 10:04:36;;;;;;;163.27;82.47;;;;;;;15.70;49.70;94408.44;5051571;28;20080;-85
2022/11/26 10:07:05;;;;;;;159.48;80.72;;;;;;;15.67;50.37;94407.41;5051637;28;20403;-82
2022/11/26 10:09:55;;;;;;;153.13;82.88;;;;;;;15.68;50.18;94403.47;5067170;28;20122;-82
2022/11/26 10:12:43;;;;;;;157.50;81.67;;;;;;;15.71;49.90;94409.97;5057740;28;20506;-84
2022/11/26 10:15:16;;;;;;;162.75;84.00;;;;;;;15.66;50.22;94419.53;5087493;28;20277;-83
2022/11/26 10:18:16;;;;;;;168.43;79.93;;;;;;;15.68;50.00;94411.66;5061099;28;20032;-83
2022/11/26 10:20:59;;;;;;;155.75;85.35;;;;;;;15.68;50.35;94414.38;5062678;28;20122;-80
2022/11/26 10:23:30;;;;;;;200.15;103.00;;;;;;;15.70;50.21;94411.19;5058932;28;20059;-81
2022/11/26 10:26:08;;;;;;;194.70;100.47;;;;;;;15.69;50.10;94412.41;5071190;28;20125;-82
2022/11/26 10:28:39;;;;;;;207.32;107.72;;;;;;;15.69;50.13;94404.22;5055264;28;20045;-84
2022/11/26 10:31:11;;;;;;;255.60;126.03;;;;;;;15.69;50.34;94415.13;5049746;28;20044;-84
2022/11/26 10:33:41;;;;;;;221.80;116.63;;;;;;;15.72;50.25;94416.91;5047330;28;20040;-81
2022/11/26 10:36:08;;;;;;;226.38;114.30;;;;;;;15.71;50.11;94413.44;5050669;28;20083;-81
2022/11/26 10:38:34;;;;;;;250.80;123.80;;;;;;;15.71;50.32;94413.44;5055513;28;20035;-82
2022/11/26 10:40:59;;;;;;;239.80;125.38;;;;;;;15.70;50.00;94411.94;5051238;28;20034;-82
2022/11/26 10:43:25;;;;;;;221.15;114.85;;;;;;;15.74;49.95;94417.22;5051551;28;20055;-82
2022/11/26 10:45:52;;;;;;;210.98;114.70;;;;;;;15.75;49.96;94413.25;5066949;28;20036;-81
2022/11/26 10:48:23;;;;;;;220.88;115.90;;;;;;;15.70;50.25;94406.47;5057945;28;20064;-81
2022/11/26 10:50:55;;;;;;;215.57;113.40;;;;;;;15.70;50.34;94403.00;5067436;28;20032;-85
2022/11/26 10:53:21;;;;;;;213.10;109.95;;;;;;;15.70;50.08;94403.75;5056767;28;20043;-82
2022/11/26 10:55:47;;;;;;;218.68;113.95;;;;;;;15.70;50.48;94405.72;5040915;28;20033;-82
2022/11/26 10:58:17;;;;;;;211.88;112.82;;;;;;;15.70;50.32;94406.47;5052926;28;20047;-86
2022/11/26 11:00:49;;;;;;;205.15;110.10;;;;;;;15.75;50.10;94405.84;5069776;28;20040;-85
2022/11/26 11:03:22;;;;;;;213.57;112.22;;;;;;;15.71;50.21;94404.50;5087421;28;20052;-84
2022/11/26 11:05:48;;;;;;;214.07;111.50;;;;;;;15.70;50.34;94403.00;5030942;28;20079;-82
2022/11/26 11:08:30;;;;;;;225.57;116.75;;;;;;;15.75;50.04;94413.25;5064004;28;20071;-83
2022/11/26 11:10:57;;;;;;;215.73;115.63;;;;;;;15.77;50.35;94400.66;5044908;28;20073;-83
2022/11/26 11:13:24;;;;;;;266.70;142.05;;;;;;;15.80;50.26;94403.69;5007573;28;20052;-82
2022/11/26 11:15:58;;;;;;;236.52;120.38;;;;;;;15.75;50.16;94416.75;5048474;28;20033;-87
2022/11/26 11:18:24;;;;;;;240.45;131.57;;;;;;;15.77;50.00;94414.31;5042459;28;20048;-81
2022/11/26 11:20:50;;;;;;;285.10;143.95;;;;;;;15.81;50.26;94403.19;5011083;28;20743;-87
2022/11/26 11:23:20;;;;;;;278.17;151.43;;;;;;;15.76;50.08;94414.75;5043404;28;20056;-82
2022/11/26 11:25:56;;;;;;;275.17;151.23;;;;;;;15.81;50.04;94416.06;5028873;28;20393;-81